Time;durP1;ratioP1;P1;durP2;ratioP2;P2;SDS_P1;SDS_P2;PMS_P1;PMS_P2;Temp;Humidity;BMP_temperature;BMP_pressure;BME280_temperature;BME280_humidity;BME280_pressure;Samples;Min_cycle;Max_cycle;Signal;HPM_P1;HPM_P2
2021/03/25 00:00:28;;;;;;;19.13;14.77;;;;;;;18.57;46.80;100478.09;2076120;28;20031;-67
2021/03/25 00:01:33;;;;;;;19.70;15.55;;;;;;;18.55;46.61;100469.19;2079427;28;20040;-67
2021/03/25 00:02:33;;;;;;;20.20;16.27;;;;;;;18.55;46.79;100469.19;2071228;28;20228;-67
2021/03/25 00:03:33;;;;;;;18.73;15.90;;;;;;;18.56;46.64;100476.38;2077480;28;20021;-67
2021/03/25 00:04:34;;;;;;;18.90;14.77;;;;;;;18.55;46.57;100475.53;2081260;28;20484;-67
2021/03/25 00:05:35;;;;;;;19.00;15.10;;;;;;;18.54;46.63;100473.78;2081212;28;20055;-67
2021/03/25 00:06:38;;;;;;;18.73;15.43;;;;;;;18.55;46.63;100477.41;2083675;28;20025;-67
2021/03/25 00:07:40;;;;;;;20.65;16.10;;;;;;;18.56;46.74;100481.84;2079197;28;20780;-67
2021/03/25 00:08:41;;;;;;;;;;;;;;;18.53;46.65;100482.13;2079290;28;20392;-67
2021/03/25 00:09:42;;;;;;;20.20;15.35;;;;;;;18.53;46.71;100487.59;2079798;28;19952;-67
2021/03/25 00:10:44;;;;;;;20.35;15.18;;;;;;;18.54;46.76;100483.84;2079138;28;20071;-67
2021/03/25 00:11:45;;;;;;;19.55;15.38;;;;;;;18.54;46.59;100483.84;2078893;28;20582;-67
2021/03/25 00:12:45;;;;;;;19.05;15.90;;;;;;;18.54;46.61;100479.22;2079119;28;20057;-67
2021/03/25 00:13:46;;;;;;;20.90;15.90;;;;;;;18.53;46.72;100480.25;2079144;28;20041;-67
2021/03/25 00:14:47;;;;;;;18.33;15.00;;;;;;;18.52;46.67;100477.66;2079217;28;20021;-67
2021/03/25 00:15:48;;;;;;;19.40;15.27;;;;;;;18.53;46.63;100482.13;2077476;28;20961;-67
2021/03/25 00:16:48;;;;;;;19.10;16.50;;;;;;;18.52;46.50;100480.38;2079611;28;20122;-67
2021/03/25 00:17:49;;;;;;;18.07;15.23;;;;;;;18.51;46.56;100478.66;2080492;28;20049;-67
2021/03/25 00:18:49;;;;;;;18.83;15.10;;;;;;;18.51;46.52;100484.13;2079166;28;20107;-67
2021/03/25 00:19:50;;;;;;;18.70;14.03;;;;;;;18.51;46.52;100476.78;2079030;28;20033;-67
2021/03/25 00:20:51;;;;;;;20.33;15.17;;;;;;;18.51;46.53;100484.13;2078752;28;20391;-67
2021/03/25 00:21:51;;;;;;;19.42;15.48;;;;;;;18.52;46.45;100480.38;2079602;28;20564;-67
2021/03/25 00:22:52;;;;;;;19.97;14.63;;;;;;;18.52;46.55;100475.81;2076379;28;20340;-67
2021/03/25 00:23:53;;;;;;;20.10;15.57;;;;;;;18.53;46.39;100482.13;2077404;28;20025;-67
2021/03/25 00:24:53;;;;;;;18.47;14.70;;;;;;;18.53;46.38;100476.66;2078673;28;20040;-67
2021/03/25 00:25:54;;;;;;;16.80;13.13;;;;;;;18.51;46.54;100481.38;2076327;28;20381;-67
2021/03/25 00:26:54;;;;;;;17.57;14.30;;;;;;;18.51;46.70;100478.66;2079293;28;20025;-67
2021/03/25 00:27:55;;;;;;;16.23;13.23;;;;;;;18.54;46.52;100483.84;2078624;28;20025;-67
2021/03/25 00:28:55;;;;;;;16.10;12.93;;;;;;;18.54;46.48;100486.56;2078789;28;20025;-67
2021/03/25 00:29:56;;;;;;;17.27;12.30;;;;;;;18.56;46.50;100484.56;2078516;28;20045;-67
2021/03/25 00:30:57;;;;;;;16.57;12.97;;;;;;;18.57;46.54;100483.56;2075793;28;20108;-67
2021/03/25 00:31:57;;;;;;;16.53;13.13;;;;;;;18.55;46.51;100482.84;2079181;28;20021;-67
2021/03/25 00:33:00;;;;;;;15.87;12.90;;;;;;;18.56;46.50;100484.56;2078206;28;20128;-67
2021/03/25 00:34:01;;;;;;;18.52;13.07;;;;;;;18.59;46.54;100485.19;2086345;28;20036;-67
2021/03/25 00:35:02;;;;;;;14.07;12.03;;;;;;;18.59;46.44;100497.94;2078614;28;20025;-67
2021/03/25 00:36:03;;;;;;;15.45;12.32;;;;;;;18.58;46.55;100488.88;2078877;28;20061;-67
2021/03/25 00:37:04;;;;;;;16.63;12.67;;;;;;;18.57;46.53;100491.75;2079154;28;20053;-67
2021/03/25 00:38:05;;;;;;;15.17;12.13;;;;;;;18.57;46.45;100489.91;2078928;28;20176;-67
2021/03/25 00:39:08;;;;;;;15.57;13.45;;;;;;;18.58;46.31;100488.03;2079450;28;20507;-67
2021/03/25 00:40:10;;;;;;;17.63;12.95;;;;;;;18.58;46.46;100490.75;2078919;28;20396;-67
2021/03/25 00:41:10;;;;;;;17.35;13.40;;;;;;;18.57;46.43;100483.56;2078777;28;20119;-67
2021/03/25 00:42:11;;;;;;;16.87;14.27;;;;;;;18.56;46.39;100492.75;2079965;28;20128;-67
2021/03/25 00:43:13;;;;;;;17.97;14.53;;;;;;;18.55;46.63;100489.16;2078557;28;20774;-67
2021/03/25 00:44:14;;;;;;;17.40;14.18;;;;;;;18.56;46.50;100487.31;2079406;28;20847;-67
2021/03/25 00:45:22;;;;;;;17.20;13.27;;;;;;;18.55;46.72;100489.16;2078365;28;20751;-67
2021/03/25 00:46:22;;;;;;;17.33;13.70;;;;;;;18.54;46.49;100490.16;2077853;28;20045;-67
2021/03/25 00:47:23;;;;;;;17.93;14.57;;;;;;;18.54;46.63;100486.56;2071434;28;20061;-67
2021/03/25 00:48:24;;;;;;;20.57;14.20;;;;;;;18.55;46.75;100491.03;2074920;28;20035;-67
2021/03/25 00:49:25;;;;;;;15.93;13.40;;;;;;;18.54;46.54;100489.28;2079331;28;20822;-67
2021/03/25 00:50:31;;;;;;;18.53;14.77;;;;;;;18.52;46.57;100488.56;2078260;28;20542;-67
2021/03/25 00:51:32;;;;;;;20.23;14.25;;;;;;;18.52;46.66;100496.75;2072142;28;20038;-67
2021/03/25 00:52:32;;;;;;;19.43;14.87;;;;;;;18.53;46.61;100493.03;2079474;28;20133;-67
2021/03/25 00:53:36;;;;;;;17.87;14.37;;;;;;;18.52;46.69;100492.19;2079136;28;20029;-67
2021/03/25 00:54:37;;;;;;;18.48;14.95;;;;;;;18.52;46.63;100502.22;2079076;28;20033;-67
2021/03/25 00:55:37;;;;;;;18.27;15.03;;;;;;;18.53;46.56;100498.50;2077672;28;20029;-67
2021/03/25 00:56:38;;;;;;;17.13;14.67;;;;;;;18.54;46.39;100497.50;2079501;28;20025;-67
2021/03/25 00:57:38;;;;;;;19.93;15.30;;;;;;;18.53;46.57;100507.56;2079230;28;20053;-67
2021/03/25 00:58:39;;;;;;;20.37;15.90;;;;;;;18.53;46.50;100493.91;2078667;28;20025;-67
2021/03/25 00:59:39;;;;;;;18.40;15.93;;;;;;;18.53;46.46;100493.03;2079398;28;20035;-67
2021/03/25 01:00:42;;;;;;;19.37;15.63;;;;;;;18.52;46.48;100502.22;2078080;28;20033;-67
2021/03/25 01:01:44;;;;;;;20.60;15.75;;;;;;;18.53;46.40;100498.50;2078852;28;20441;-67
2021/03/25 01:02:44;;;;;;;19.50;15.55;;;;;;;18.51;46.46;100505.97;2078850;28;20033;-67
2021/03/25 01:03:45;;;;;;;19.57;15.17;;;;;;;18.53;46.44;100503.97;2078859;28;20025;-67
2021/03/25 01:04:46;;;;;;;19.90;15.47;;;;;;;18.51;46.45;100506.81;2078758;28;20439;-67
2021/03/25 01:05:46;;;;;;;20.02;15.98;;;;;;;18.51;46.45;100505.97;2078656;28;20348;-67
2021/03/25 01:06:47;;;;;;;19.10;15.63;;;;;;;18.51;46.48;100506.81;2078275;28;20082;-67
2021/03/25 01:07:47;;;;;;;18.13;15.20;;;;;;;18.52;46.41;100508.56;2078219;28;20033;-67
2021/03/25 01:08:48;;;;;;;18.00;15.23;;;;;;;18.51;46.48;100508.69;2077267;28;20142;-67
2021/03/25 01:09:48;;;;;;;21.27;15.90;;;;;;;18.49;46.59;100507.94;2078144;28;20562;-67
2021/03/25 01:10:52;;;;;;;20.70;15.93;;;;;;;18.50;46.41;100502.38;2078082;28;20103;-67
2021/03/25 01:11:55;;;;;;;20.77;16.58;;;;;;;18.50;46.53;100504.25;2083302;28;20303;-67
2021/03/25 01:12:57;;;;;;;20.75;16.67;;;;;;;18.49;46.42;100502.50;2075244;28;20030;-67
2021/03/25 01:14:05;;;;;;;21.55;16.17;;;;;;;18.48;46.47;100506.25;2075920;28;20027;-67
2021/03/25 01:15:07;;;;;;;19.65;15.73;;;;;;;18.49;46.53;100510.69;2079250;28;20105;-67
2021/03/25 01:16:13;;;;;;;18.38;15.82;;;;;;;18.49;46.64;100510.69;2080117;28;20025;-67
2021/03/25 01:17:14;;;;;;;19.90;15.98;;;;;;;18.48;46.47;100508.97;2076461;28;20068;-67
2021/03/25 01:18:15;;;;;;;19.20;15.00;;;;;;;18.48;46.56;100503.50;2078737;28;20025;-67
2021/03/25 01:19:21;;;;;;;18.70;15.33;;;;;;;18.47;46.60;100499.91;2079762;28;20059;-67
2021/03/25 01:20:25;;;;;;;19.88;16.27;;;;;;;18.46;46.58;100503.63;2077887;28;20818;-67
2021/03/25 01:21:26;;;;;;;19.30;16.08;;;;;;;18.47;46.49;100504.50;2077717;28;20084;-67
2021/03/25 01:22:27;;;;;;;18.70;16.15;;;;;;;18.46;46.57;100509.09;2084403;28;20032;-67
2021/03/25 01:23:27;;;;;;;19.07;16.07;;;;;;;18.46;46.68;100506.38;2080100;28;20033;-67
2021/03/25 01:24:28;;;;;;;19.40;16.10;;;;;;;18.46;46.46;100502.78;2082622;28;20124;-67
2021/03/25 01:25:28;;;;;;;21.33;15.47;;;;;;;18.45;46.75;100501.03;2084185;28;20037;-67
2021/03/25 01:26:29;;;;;;;22.50;17.47;;;;;;;18.45;46.57;100504.66;2077866;28;20048;-67
2021/03/25 01:27:29;;;;;;;21.07;16.80;;;;;;;18.45;46.46;100501.03;2085582;28;20029;-67
2021/03/25 01:28:30;;;;;;;19.90;16.10;;;;;;;18.45;46.55;100506.50;2081123;28;20147;-67
2021/03/25 01:29:30;;;;;;;19.70;16.00;;;;;;;18.46;46.63;100508.22;2083544;28;20021;-67
2021/03/25 01:30:32;;;;;;;17.93;14.60;;;;;;;18.47;46.50;100501.75;2081388;28;20037;-67
2021/03/25 01:31:34;;;;;;;20.05;16.10;;;;;;;18.46;46.58;100508.22;2080802;28;20398;-67
2021/03/25 01:32:35;;;;;;;18.30;15.68;;;;;;;18.45;46.62;100507.38;2079636;28;20037;-67
2021/03/25 01:33:35;;;;;;;18.53;15.97;;;;;;;18.46;46.61;100502.78;2079137;28;20044;-67
2021/03/25 01:34:36;;;;;;;19.57;15.17;;;;;;;18.45;46.60;100504.66;2080379;28;20056;-67
2021/03/25 01:35:38;;;;;;;18.30;15.03;;;;;;;18.46;46.61;100497.31;2079846;28;20060;-67
2021/03/25 01:36:39;;;;;;;17.52;14.55;;;;;;;18.46;46.63;100503.63;2076632;28;20285;-67
2021/03/25 01:37:48;;;;;;;16.93;14.07;;;;;;;18.46;46.71;100498.16;2079928;28;20424;-67
2021/03/25 01:38:49;;;;;;;16.55;14.05;;;;;;;18.47;46.78;100499.03;2080531;28;20053;-67
2021/03/25 01:39:50;;;;;;;17.90;14.37;;;;;;;18.51;46.42;100505.97;2079615;28;20126;-67
2021/03/25 01:40:57;;;;;;;18.02;15.23;;;;;;;18.52;46.57;100494.03;2079925;28;20512;-67
2021/03/25 01:41:58;;;;;;;18.42;14.52;;;;;;;18.54;46.60;100497.50;2080256;28;20715;-67
2021/03/25 01:43:12;;;;;;;17.33;14.27;;;;;;;18.54;46.42;100505.69;2080972;28;20761;-67
2021/03/25 01:44:37;;;;;;;19.33;14.63;;;;;;;18.57;46.39;100510.84;2080449;28;20026;-67
2021/03/25 01:45:49;;;;;;;17.42;13.88;;;;;;;18.56;46.31;100514.59;2080647;28;20029;-67
2021/03/25 01:46:49;;;;;;;18.83;13.80;;;;;;;18.56;46.53;100503.69;2077624;28;20069;-67
2021/03/25 01:47:50;;;;;;;18.40;14.83;;;;;;;18.56;46.48;100511.88;2082339;28;20021;-67
2021/03/25 01:48:53;;;;;;;17.30;14.13;;;;;;;18.54;46.33;100508.41;2080252;28;20496;-67
2021/03/25 01:49:54;;;;;;;18.90;14.98;;;;;;;18.54;46.57;100513.88;2080113;28;20029;-67
2021/03/25 01:50:59;;;;;;;17.83;14.70;;;;;;;18.52;46.50;100508.56;2076814;28;20022;-67
2021/03/25 01:52:17;;;;;;;19.85;14.63;;;;;;;18.50;46.58;100505.09;2076831;28;20041;-67
2021/03/25 01:53:55;;;;;;;18.88;14.75;;;;;;;18.51;46.50;100511.41;2075227;28;20032;-67
2021/03/25 01:55:19;;;;;;;18.60;14.73;;;;;;;18.49;46.74;100514.28;2078656;28;20068;-67
2021/03/25 01:57:08;;;;;;;18.27;14.80;;;;;;;18.47;46.74;100515.41;2077512;28;20047;-67
2021/03/25 01:58:37;;;;;;;18.38;15.38;;;;;;;18.47;46.48;100515.41;2069542;28;20037;-67
2021/03/25 02:00:05;;;;;;;18.70;14.32;;;;;;;18.46;46.70;100510.97;2071670;28;20042;-67
2021/03/25 02:01:14;;;;;;;20.00;14.93;;;;;;;18.48;46.69;100514.44;2076256;28;20369;-67
2021/03/25 02:02:35;;;;;;;18.10;13.95;;;;;;;18.47;46.64;100520.88;2079907;28;20024;-67
2021/03/25 02:04:06;;;;;;;24.33;14.73;;;;;;;18.45;46.74;100522.88;2079381;28;20025;-67
2021/03/25 02:05:24;;;;;;;19.80;14.63;;;;;;;18.43;46.81;100518.41;2077111;28;20080;-67
2021/03/25 02:07:06;;;;;;;18.23;14.80;;;;;;;18.42;46.76;100516.69;2081552;28;20037;-67
2021/03/25 02:08:13;;;;;;;20.55;14.57;;;;;;;18.45;46.65;100517.41;2076700;28;20488;-67
2021/03/25 02:09:34;;;;;;;17.75;14.38;;;;;;;18.45;46.54;100520.13;2079044;28;20124;-67
2021/03/25 02:10:34;;;;;;;18.75;15.30;;;;;;;18.45;46.61;100531.94;2080322;28;20026;-67
2021/03/25 02:11:47;;;;;;;19.50;15.63;;;;;;;18.45;46.50;100521.03;2079843;28;20079;-67
2021/03/25 02:13:02;;;;;;;20.30;15.52;;;;;;;18.46;46.71;100533.66;2080630;28;20026;-67
2021/03/25 02:14:24;;;;;;;17.48;14.02;;;;;;;18.45;46.88;100531.06;2080181;28;20056;-67
2021/03/25 02:15:53;;;;;;;18.58;15.25;;;;;;;18.43;46.73;100534.78;2075971;28;20033;-67
2021/03/25 02:17:02;;;;;;;17.60;14.52;;;;;;;18.43;46.54;100533.94;2072978;28;20038;-67
2021/03/25 02:18:26;;;;;;;20.25;15.35;;;;;;;18.43;46.58;100537.53;2079802;28;20550;-67
2021/03/25 02:19:59;;;;;;;18.88;14.82;;;;;;;18.42;46.79;100535.81;2084281;28;20028;-67
2021/03/25 02:21:36;;;;;;;18.70;14.82;;;;;;;18.41;46.85;100533.19;2068346;28;20128;-67
2021/03/25 02:23:07;;;;;;;20.52;16.58;;;;;;;18.41;46.58;100536.78;2078049;28;20361;-67
2021/03/25 02:24:44;;;;;;;18.60;15.05;;;;;;;18.41;46.58;100539.53;2079009;28;20029;-67
2021/03/25 02:25:51;;;;;;;17.83;15.23;;;;;;;18.40;46.51;100537.81;2059517;28;20042;-67
2021/03/25 02:27:07;;;;;;;20.00;16.05;;;;;;;18.40;46.65;100543.25;2070989;28;20042;-67
2021/03/25 02:28:27;;;;;;;17.17;13.98;;;;;;;18.39;46.79;100544.25;2078996;28;20095;-67
2021/03/25 02:29:43;;;;;;;17.77;14.65;;;;;;;18.39;46.74;100536.06;2079877;28;20100;-67
2021/03/25 02:30:56;;;;;;;18.90;15.15;;;;;;;18.39;46.70;100541.50;2071606;28;20484;-67
2021/03/25 02:32:03;;;;;;;18.92;15.68;;;;;;;18.39;46.57;100536.06;2080059;28;20025;-67
2021/03/25 02:33:09;;;;;;;18.50;15.18;;;;;;;18.38;46.67;100542.53;2072651;28;20052;-67
2021/03/25 02:34:22;;;;;;;20.80;16.52;;;;;;;18.38;46.71;100539.81;2072775;28;20463;-67
2021/03/25 02:35:26;;;;;;;18.13;14.77;;;;;;;18.37;46.76;100538.09;2076484;28;20033;-67
2021/03/25 02:36:40;;;;;;;19.08;16.85;;;;;;;18.38;46.64;100550.72;2075058;28;20036;-67
2021/03/25 02:37:45;;;;;;;17.83;14.85;;;;;;;18.37;46.80;100540.81;2080323;28;20025;-67
2021/03/25 02:38:59;;;;;;;17.77;15.60;;;;;;;18.37;46.78;100535.34;2079810;28;20111;-67
2021/03/25 02:39:59;;;;;;;17.85;13.98;;;;;;;18.37;46.86;100540.81;2079786;28;20033;-67
2021/03/25 02:41:08;;;;;;;17.60;15.33;;;;;;;18.38;46.61;100556.19;2079270;28;20121;-67
2021/03/25 02:42:13;;;;;;;17.50;14.70;;;;;;;18.38;46.64;100545.25;2079596;28;20456;-67
2021/03/25 02:43:19;;;;;;;20.33;15.90;;;;;;;18.40;46.75;100550.59;2079378;28;20508;-67
2021/03/25 02:44:27;;;;;;;20.25;16.50;;;;;;;18.40;46.47;100548.72;2079136;28;20571;-67
2021/03/25 02:45:31;;;;;;;17.92;14.48;;;;;;;18.41;46.55;100550.44;2079962;28;20087;-67
2021/03/25 02:46:44;;;;;;;22.02;17.85;;;;;;;18.38;46.72;100539.81;2078685;28;20052;-67
2021/03/25 02:47:45;;;;;;;;;;;;;;;18.38;46.60;100547.13;2080323;28;20154;-67
2021/03/25 02:48:48;;;;;;;18.90;14.02;;;;;;;18.39;46.94;100541.50;2075166;28;19917;-67
2021/03/25 02:49:55;;;;;;;17.02;13.75;;;;;;;18.39;46.85;100541.50;2079352;28;20076;-67
2021/03/25 02:51:04;;;;;;;17.77;14.15;;;;;;;18.40;46.99;100543.25;2078005;28;20071;-65
2021/03/25 02:52:12;;;;;;;18.13;14.18;;;;;;;18.46;46.74;100551.91;2071149;28;20022;-66
2021/03/25 02:53:37;;;;;;;17.65;14.98;;;;;;;18.43;46.86;100545.72;2075699;28;20527;-66
2021/03/25 02:54:39;;;;;;;17.65;14.52;;;;;;;18.46;46.55;100543.72;2078981;28;20063;-66
2021/03/25 02:55:39;;;;;;;17.40;14.18;;;;;;;18.49;46.55;100546.16;2079808;28;20400;-66
2021/03/25 02:56:40;;;;;;;16.43;13.60;;;;;;;18.49;46.74;100544.31;2078842;28;20087;-66
2021/03/25 02:57:54;;;;;;;16.00;13.43;;;;;;;18.47;46.67;100542.72;2075316;28;20164;-66
2021/03/25 02:59:00;;;;;;;17.42;14.85;;;;;;;18.47;46.71;100549.06;2073248;28;20473;-66
2021/03/25 03:00:09;;;;;;;17.98;15.07;;;;;;;18.46;46.71;100543.72;2077483;28;20040;-67
2021/03/25 03:01:12;;;;;;;16.08;13.55;;;;;;;18.47;46.69;100542.72;2079305;28;20065;-66
2021/03/25 03:02:16;;;;;;;17.23;14.13;;;;;;;18.44;46.55;100546.56;2079691;28;20025;-66
2021/03/25 03:03:37;;;;;;;17.42;14.30;;;;;;;18.45;46.58;100539.25;2076716;28;20048;-66
2021/03/25 03:04:40;;;;;;;19.30;14.48;;;;;;;18.45;46.71;100545.59;2072079;28;20037;-66
2021/03/25 03:05:42;;;;;;;19.13;15.63;;;;;;;18.44;46.73;100543.84;2078901;28;20099;-66
2021/03/25 03:07:00;;;;;;;17.70;14.38;;;;;;;18.42;46.66;100541.28;2079766;28;20029;-66
2021/03/25 03:08:18;;;;;;;16.27;14.05;;;;;;;18.43;46.90;100532.06;2079485;28;20025;-66
2021/03/25 03:09:26;;;;;;;18.27;14.02;;;;;;;18.42;46.76;100535.81;2076796;28;20395;-66
2021/03/25 03:10:36;;;;;;;16.17;13.85;;;;;;;18.42;46.75;100533.09;2079724;28;20473;-66
2021/03/25 03:11:41;;;;;;;19.67;14.35;;;;;;;18.42;46.64;100535.81;2078921;28;20495;-66
2021/03/25 03:12:45;;;;;;;18.73;15.52;;;;;;;18.41;46.86;100534.06;2079736;28;20029;-66
2021/03/25 03:13:57;;;;;;;19.58;13.95;;;;;;;18.41;46.99;100528.59;2079027;28;20021;-66
2021/03/25 03:15:06;;;;;;;17.17;13.68;;;;;;;18.42;46.64;100533.09;2079212;28;20464;-66
2021/03/25 03:16:43;;;;;;;16.60;14.40;;;;;;;18.42;46.71;100530.34;2073429;28;20029;-66
2021/03/25 03:17:54;;;;;;;18.08;14.32;;;;;;;18.42;46.73;100535.81;2080320;28;20025;-66
2021/03/25 03:18:59;;;;;;;17.10;15.25;;;;;;;18.42;46.66;100534.91;2072052;28;20034;-66
2021/03/25 03:20:15;;;;;;;16.70;13.77;;;;;;;18.42;46.71;100538.53;2079751;28;20195;-66
2021/03/25 03:21:28;;;;;;;18.55;15.48;;;;;;;18.42;46.56;100533.09;2079596;28;20028;-66
2021/03/25 03:22:29;;;;;;;15.68;13.75;;;;;;;18.43;46.70;100533.94;2081038;28;20139;-66
2021/03/25 03:23:31;;;;;;;15.27;13.50;;;;;;;18.45;46.82;100536.50;2079570;28;20152;-66
2021/03/25 03:24:32;;;;;;;16.17;13.98;;;;;;;18.45;46.48;100541.97;2082368;28;20112;-66
2021/03/25 03:25:32;;;;;;;17.00;15.18;;;;;;;18.44;46.64;100532.94;2080575;28;20145;-66
2021/03/25 03:26:41;;;;;;;17.47;14.67;;;;;;;18.42;46.60;100541.28;2080681;28;20025;-66
2021/03/25 03:27:47;;;;;;;18.00;14.98;;;;;;;18.41;46.53;100544.13;2078887;28;20550;-66
2021/03/25 03:28:52;;;;;;;18.48;14.40;;;;;;;18.42;46.76;100541.28;2079663;28;20078;-66
2021/03/25 03:29:53;;;;;;;18.35;15.30;;;;;;;18.40;46.64;100535.06;2081661;28;20025;-66
2021/03/25 03:31:04;;;;;;;16.80;14.23;;;;;;;18.41;46.52;100544.13;2079166;28;20553;-66
2021/03/25 03:32:12;;;;;;;17.10;14.27;;;;;;;18.40;46.72;100548.72;2079847;28;20029;-66
2021/03/25 03:33:21;;;;;;;20.27;15.00;;;;;;;18.39;46.87;100541.50;2078339;28;20108;-66
2021/03/25 03:34:29;;;;;;;16.63;14.65;;;;;;;18.38;46.71;100544.41;2076736;28;20021;-66
2021/03/25 03:35:37;;;;;;;16.92;14.38;;;;;;;18.37;46.76;100540.81;2079134;28;20040;-66
2021/03/25 03:36:39;;;;;;;16.55;14.02;;;;;;;18.38;46.75;100545.25;2079105;28;20021;-66
2021/03/25 03:37:43;;;;;;;19.95;15.35;;;;;;;18.38;46.75;100539.81;2079315;28;20029;-66
2021/03/25 03:38:48;;;;;;;17.55;14.90;;;;;;;18.38;46.70;100542.53;2071413;28;20017;-66
2021/03/25 03:39:54;;;;;;;16.17;14.43;;;;;;;18.37;46.66;100543.53;2074222;28;20041;-66
2021/03/25 03:40:55;;;;;;;18.00;14.48;;;;;;;18.37;46.49;100540.81;2078615;28;20532;-66
2021/03/25 03:42:01;;;;;;;16.38;14.13;;;;;;;18.37;46.64;100539.91;2078726;28;20508;-66
2021/03/25 03:43:06;;;;;;;16.83;13.00;;;;;;;18.36;46.80;100541.78;2072988;28;20033;-66
2021/03/25 03:44:11;;;;;;;17.50;13.25;;;;;;;18.35;46.78;100542.81;2083038;28;20074;-66
2021/03/25 03:45:17;;;;;;;17.52;13.98;;;;;;;18.35;47.01;100545.53;2081737;28;20104;-66
2021/03/25 03:46:22;;;;;;;15.90;13.63;;;;;;;18.34;46.90;100543.78;2078905;28;20025;-66
2021/03/25 03:47:27;;;;;;;15.95;13.38;;;;;;;18.35;46.83;100545.53;2082499;28;20441;-66
2021/03/25 03:48:39;;;;;;;17.15;14.82;;;;;;;18.34;46.70;100535.59;2078668;28;20118;-66
2021/03/25 03:49:48;;;;;;;17.42;14.73;;;;;;;18.34;46.83;100538.31;2077873;28;20033;-66
2021/03/25 03:50:52;;;;;;;18.05;14.65;;;;;;;18.35;46.90;100541.94;2083332;28;20023;-66
2021/03/25 03:52:11;;;;;;;17.23;13.95;;;;;;;18.33;46.88;100535.75;2082532;28;20063;-66
2021/03/25 03:53:12;;;;;;;17.88;14.80;;;;;;;18.33;46.66;100542.06;2072648;28;20033;-66
2021/03/25 03:54:13;;;;;;;16.83;14.30;;;;;;;18.34;46.83;100538.31;2078557;28;20472;-66
2021/03/25 03:55:15;;;;;;;17.42;14.57;;;;;;;18.33;46.83;100542.06;2076234;28;20041;-66
2021/03/25 03:56:22;;;;;;;;;;;;;;;18.32;46.70;100537.59;2071845;28;20037;-66
2021/03/25 03:57:38;;;;;;;18.15;14.68;;;;;;;18.33;46.78;100544.78;2075430;28;19952;-66
2021/03/25 03:58:54;;;;;;;17.20;13.48;;;;;;;18.34;46.82;100538.31;2079585;28;20447;-66
2021/03/25 04:00:14;;;;;;;16.17;13.48;;;;;;;18.33;46.81;100542.06;2072878;28;20072;-66
2021/03/25 04:01:35;;;;;;;16.65;13.85;;;;;;;18.34;46.92;100543.78;2077597;28;20036;-66
2021/03/25 04:02:42;;;;;;;17.15;13.77;;;;;;;18.34;47.04;100540.19;2073693;28;20571;-66
2021/03/25 04:03:47;;;;;;;16.33;13.15;;;;;;;18.36;46.92;100540.94;2076157;28;20076;-66
2021/03/25 04:04:52;;;;;;;17.98;13.68;;;;;;;18.35;46.94;100545.53;2078771;28;20064;-66
2021/03/25 04:05:57;;;;;;;15.68;12.32;;;;;;;18.37;46.72;100545.38;2082335;28;20044;-66
2021/03/25 04:07:00;;;;;;;15.82;13.55;;;;;;;18.37;46.91;100554.47;2078109;28;20036;-66
2021/03/25 04:08:07;;;;;;;16.45;12.88;;;;;;;18.38;46.93;100544.41;2071068;28;20107;-66
2021/03/25 04:09:15;;;;;;;18.13;13.43;;;;;;;18.39;46.69;100546.97;2078010;28;20028;-66
2021/03/25 04:10:26;;;;;;;16.55;12.85;;;;;;;18.40;47.01;100548.72;2079308;28;20021;-66
2021/03/25 04:12:04;;;;;;;17.13;13.25;;;;;;;18.39;46.92;100552.44;2078349;28;20132;-66
2021/03/25 04:13:10;;;;;;;15.50;13.48;;;;;;;18.38;47.00;100550.72;2059439;28;20152;-66
2021/03/25 04:14:24;;;;;;;17.10;13.80;;;;;;;18.37;47.04;100548.09;2055434;28;20023;-66
2021/03/25 04:15:27;;;;;;;16.25;12.57;;;;;;;18.36;46.90;100554.56;2070069;28;20346;-66
2021/03/25 04:16:31;;;;;;;16.35;13.23;;;;;;;18.38;47.01;100561.63;2078963;28;20033;-66
2021/03/25 04:17:38;;;;;;;15.98;13.65;;;;;;;18.39;47.11;100557.03;2077017;28;20033;-66
2021/03/25 04:18:47;;;;;;;16.25;13.23;;;;;;;18.38;46.85;100560.78;2071193;28;20500;-66
2021/03/25 04:19:50;;;;;;;15.63;13.20;;;;;;;18.38;46.83;100556.19;2078127;28;20049;-67
2021/03/25 04:20:56;;;;;;;16.02;13.32;;;;;;;18.37;46.87;100559.91;2080039;28;20081;-66
2021/03/25 04:22:09;;;;;;;15.50;13.45;;;;;;;18.38;47.00;100558.91;2079588;28;20032;-67
2021/03/25 04:23:12;;;;;;;16.25;13.80;;;;;;;18.39;46.87;100546.97;2076667;28;20072;-67
2021/03/25 04:24:21;;;;;;;17.98;13.10;;;;;;;18.40;46.78;100554.19;2078940;28;20026;-67
2021/03/25 04:25:28;;;;;;;14.15;12.45;;;;;;;18.37;47.04;100551.72;2079168;28;20057;-67
2021/03/25 04:26:38;;;;;;;13.55;12.05;;;;;;;18.38;47.00;100548.00;2078422;28;20021;-66
2021/03/25 04:27:47;;;;;;;15.57;13.38;;;;;;;18.38;46.95;100549.84;2078336;28;20033;-67
2021/03/25 04:29:05;;;;;;;15.20;13.60;;;;;;;18.38;47.00;100561.63;2071253;28;20034;-67
2021/03/25 04:30:17;;;;;;;16.48;12.93;;;;;;;18.38;47.00;100556.19;2076170;28;20460;-66
2021/03/25 04:31:18;;;;;;;15.10;12.63;;;;;;;18.37;46.97;100557.19;2077662;28;20021;-67
2021/03/25 04:32:19;;;;;;;15.65;12.68;;;;;;;18.39;46.99;100563.34;2079411;28;20027;-66
2021/03/25 04:33:22;;;;;;;15.30;13.27;;;;;;;18.38;46.89;100556.19;2080742;28;20095;-67
2021/03/25 04:34:23;;;;;;;15.52;12.52;;;;;;;18.38;46.84;100555.31;2079387;28;21273;-66
2021/03/25 04:35:24;;;;;;;17.02;13.05;;;;;;;18.37;46.74;100554.47;2078538;28;20021;-67
2021/03/25 04:36:29;;;;;;;18.37;13.77;;;;;;;18.37;47.02;100550.84;2078570;28;20029;-66
2021/03/25 04:37:32;;;;;;;18.10;13.75;;;;;;;18.36;46.86;100558.16;2083580;28;20047;-66
2021/03/25 04:38:36;;;;;;;14.38;12.75;;;;;;;18.37;46.73;100553.56;2086736;28;20025;-66
2021/03/25 04:39:39;;;;;;;15.68;13.57;;;;;;;18.36;47.03;100547.25;2071083;28;20531;-67
2021/03/25 04:40:39;;;;;;;15.18;12.80;;;;;;;18.36;46.89;100552.72;2074401;28;20038;-66
2021/03/25 04:41:42;;;;;;;15.30;12.90;;;;;;;18.34;47.11;100543.78;2079091;28;20056;-67
2021/03/25 04:42:44;;;;;;;15.85;13.05;;;;;;;18.35;46.90;100555.59;2078280;28;20022;-67
2021/03/25 04:43:46;;;;;;;15.98;12.82;;;;;;;18.35;46.73;100551.00;2078883;28;20029;-66
2021/03/25 04:44:59;;;;;;;15.15;12.82;;;;;;;18.34;46.96;100542.94;2078404;28;20036;-67
2021/03/25 04:46:08;;;;;;;17.13;13.55;;;;;;;18.34;47.05;100541.06;2077998;28;20726;-67
2021/03/25 04:47:29;;;;;;;17.83;14.02;;;;;;;18.33;46.91;100547.53;2076083;28;20029;-66
2021/03/25 04:48:33;;;;;;;14.82;12.55;;;;;;;18.34;46.86;100549.25;2077294;28;20061;-67
2021/03/25 04:49:39;;;;;;;14.93;12.60;;;;;;;18.32;46.79;100553.97;2074467;28;20036;-66
2021/03/25 04:50:44;;;;;;;15.68;12.73;;;;;;;18.33;46.93;100547.53;2078165;28;20092;-67
2021/03/25 04:51:45;;;;;;;15.52;13.40;;;;;;;18.32;46.80;100548.50;2078716;28;20082;-67
2021/03/25 04:52:46;;;;;;;15.70;12.80;;;;;;;18.32;47.09;100545.78;2078748;28;20028;-67
2021/03/25 04:53:47;;;;;;;15.25;12.52;;;;;;;18.31;47.01;100546.78;2078849;28;20048;-66
2021/03/25 04:54:48;;;;;;;16.88;14.15;;;;;;;18.32;47.03;100551.25;2077915;28;20025;-66
2021/03/25 04:55:49;;;;;;;17.23;13.73;;;;;;;18.32;46.88;100547.66;2083564;28;20041;-67
2021/03/25 04:56:50;;;;;;;14.20;11.83;;;;;;;18.33;46.95;100547.53;2076107;28;20060;-66
2021/03/25 04:57:55;;;;;;;15.03;12.30;;;;;;;18.31;46.77;100552.25;2078148;28;20452;-66
2021/03/25 04:58:59;;;;;;;14.90;13.13;;;;;;;18.32;46.99;100556.69;2076146;28;20343;-66
2021/03/25 05:00:06;;;;;;;15.20;12.75;;;;;;;18.31;47.14;100549.53;2077776;28;20817;-66
2021/03/25 05:01:14;;;;;;;16.27;13.18;;;;;;;18.30;46.93;100550.53;2084479;28;20029;-67
2021/03/25 05:02:15;;;;;;;15.75;11.95;;;;;;;18.31;47.00;100551.38;2078217;28;20022;-66
2021/03/25 05:03:24;;;;;;;15.40;12.77;;;;;;;18.29;47.14;100554.25;2077883;28;20037;-66